Dover, Georgia
Current Conditions -  °F | °C
As of 7:15 PM on Thursday 27 Nov 2014 (Local Time) from KTBR Reporting Station
Clear Clear  
Wind Chill: 41°   Ceiling: Unl
Heat Index: 45°   Visibility: 10mi
Dew Point: 34°   Wind: 7mph
Humidity: 66%   Direction: 300°WNW
Pressure: 30.27"   Gusts: NA
Location:  32.58°N, 81.71°W
Report Text: KTBR 280015Z AUTO 30006KT 10SM CLR 07/01 A3027 RMK AO2 T00700010
Loading
Personal Weather Stations






























Interactive Weather Map New forecast layout! Learn more

10-Day Weather Forecast

Advertisements
Track Severe Weather on mobile